マレ の空港の天気 - METARとTAF

マレ国際空港 ( VRMM / MLE ) - モルディブ Hulhule Island, North Male Atoll
飛行場実況気象(Metar)
観測時間06/26 16:00 MVT (06/26 11:00 UTC)
風向・風速南西 6m/s
視程10km以上
天気現象
少しの雲 雲底高度 520m
全天の4割程度の雲 雲底高度 700m
全天の8割程度の雲 雲底高度 7620m
気温30℃
湿度75%
気圧1008hPa
METARVRMM 261100Z 23011KT 9999 FEW017TCU SCT023 BKN250 30/25 Q1008 NOSIG
過去の天気等 Google飛行場航空写真 Wunderground天気予報

過去48時間のMETAR

飛行場予報(TAF)
データがありません